sensor_id;sensor_type;location;lat;lon;timestamp;pressure;altitude;pressure_sealevel;temperature;humidity
55442;BME280;41313;58.740;50.174;2022-11-15T00:02:18;99448.91;;;-0.72;45.43
55442;BME280;41313;58.740;50.174;2022-11-15T00:07:39;99450.94;;;-1.39;47.29
55442;BME280;41313;58.740;50.174;2022-11-15T00:12:59;99442.47;;;-0.95;46.68
55442;BME280;41313;58.740;50.174;2022-11-15T00:18:19;99460.06;;;-1.20;46.68
55442;BME280;41313;58.740;50.174;2022-11-15T00:23:40;99443.75;;;-0.71;46.10
55442;BME280;41313;58.740;50.174;2022-11-15T00:29:00;99439.97;;;-0.54;45.47
55442;BME280;41313;58.740;50.174;2022-11-15T00:34:20;99439.72;;;-0.42;46.02
55442;BME280;41313;58.740;50.174;2022-11-15T00:39:41;99444.50;;;-0.22;45.34
55442;BME280;41313;58.740;50.174;2022-11-15T00:45:01;99446.09;;;-0.58;46.45
55442;BME280;41313;58.740;50.174;2022-11-15T00:50:21;99442.84;;;-0.70;45.68
55442;BME280;41313;58.740;50.174;2022-11-15T00:55:41;99448.91;;;-0.72;46.29
55442;BME280;41313;58.740;50.174;2022-11-15T01:01:09;99452.25;;;-0.65;45.61
55442;BME280;41313;58.740;50.174;2022-11-15T01:06:30;99455.81;;;-0.73;46.18
55442;BME280;41313;58.740;50.174;2022-11-15T01:11:50;99460.69;;;-1.05;45.91
55442;BME280;41313;58.740;50.174;2022-11-15T01:17:10;99474.09;;;-1.36;46.96
55442;BME280;41313;58.740;50.174;2022-11-15T01:22:31;99465.00;;;-1.07;46.01
55442;BME280;41313;58.740;50.174;2022-11-15T01:27:51;99470.53;;;-1.29;45.85
55442;BME280;41313;58.740;50.174;2022-11-15T01:33:11;99480.16;;;-1.40;45.90
55442;BME280;41313;58.740;50.174;2022-11-15T01:38:31;99473.28;;;-1.41;45.95
55442;BME280;41313;58.740;50.174;2022-11-15T01:43:54;99478.31;;;-1.32;45.66
55442;BME280;41313;58.740;50.174;2022-11-15T01:49:18;99486.88;;;-1.30;45.88
55442;BME280;41313;58.740;50.174;2022-11-15T01:54:39;99484.34;;;-1.33;45.33
55442;BME280;41313;58.740;50.174;2022-11-15T02:00:02;99487.16;;;-1.48;46.38
55442;BME280;41313;58.740;50.174;2022-11-15T02:05:23;99501.41;;;-1.26;44.91
55442;BME280;41313;58.740;50.174;2022-11-15T02:10:44;99507.59;;;-1.99;46.60
55442;BME280;41313;58.740;50.174;2022-11-15T02:16:37;99495.66;;;-1.43;45.20
55442;BME280;41313;58.740;50.174;2022-11-15T02:34:11;99513.03;;;-1.54;44.64
55442;BME280;41313;58.740;50.174;2022-11-15T02:39:46;99516.72;;;-1.15;44.31
55442;BME280;41313;58.740;50.174;2022-11-15T02:45:12;99517.34;;;-0.99;44.17
55442;BME280;41313;58.740;50.174;2022-11-15T02:50:42;99517.47;;;-1.08;44.31
55442;BME280;41313;58.740;50.174;2022-11-15T02:56:04;99527.28;;;-0.78;43.82
55442;BME280;41313;58.740;50.174;2022-11-15T03:07:18;99531.81;;;-0.90;43.85
55442;BME280;41313;58.740;50.174;2022-11-15T03:12:52;99540.03;;;-1.23;44.53
55442;BME280;41313;58.740;50.174;2022-11-15T03:18:21;99542.22;;;-0.97;44.12
55442;BME280;41313;58.740;50.174;2022-11-15T03:23:47;99554.94;;;-1.43;45.18
55442;BME280;41313;58.740;50.174;2022-11-15T03:29:16;99548.19;;;-0.93;43.90
55442;BME280;41313;58.740;50.174;2022-11-15T03:34:46;99564.41;;;-1.42;45.05
55442;BME280;41313;58.740;50.174;2022-11-15T03:40:09;99553.50;;;-1.02;44.64
55442;BME280;41313;58.740;50.174;2022-11-15T03:45:40;99559.78;;;-1.20;45.10
55442;BME280;41313;58.740;50.174;2022-11-15T03:51:04;99552.50;;;-1.52;45.86
55442;BME280;41313;58.740;50.174;2022-11-15T03:56:25;99571.03;;;-1.26;44.81
55442;BME280;41313;58.740;50.174;2022-11-15T04:01:45;99561.97;;;-0.94;45.23
55442;BME280;41313;58.740;50.174;2022-11-15T04:07:05;99563.97;;;-0.59;44.76
55442;BME280;41313;58.740;50.174;2022-11-15T04:12:26;99579.09;;;-0.90;44.52
55442;BME280;41313;58.740;50.174;2022-11-15T04:17:53;99578.34;;;-0.95;44.63
55442;BME280;41313;58.740;50.174;2022-11-15T04:23:22;99591.22;;;-0.95;44.65
55442;BME280;41313;58.740;50.174;2022-11-15T04:29:01;99583.50;;;-0.95;44.36
55442;BME280;41313;58.740;50.174;2022-11-15T04:34:59;99587.72;;;-0.91;44.40
55442;BME280;41313;58.740;50.174;2022-11-15T04:40:38;99590.75;;;-0.64;44.32
55442;BME280;41313;58.740;50.174;2022-11-15T04:46:17;99594.34;;;-0.75;44.09
55442;BME280;41313;58.740;50.174;2022-11-15T04:51:37;99612.50;;;-0.81;44.33
55442;BME280;41313;58.740;50.174;2022-11-15T04:56:58;99608.03;;;-0.70;43.82
55442;BME280;41313;58.740;50.174;2022-11-15T05:02:18;99615.34;;;-0.99;45.04
55442;BME280;41313;58.740;50.174;2022-11-15T05:07:38;99620.50;;;-0.99;44.48
55442;BME280;41313;58.740;50.174;2022-11-15T05:12:59;99620.56;;;-0.47;44.10
55442;BME280;41313;58.740;50.174;2022-11-15T05:18:19;99618.16;;;-0.57;43.74
55442;BME280;41313;58.740;50.174;2022-11-15T05:23:41;99631.53;;;-1.53;45.17
55442;BME280;41313;58.740;50.174;2022-11-15T05:29:01;99628.53;;;-1.19;45.43
55442;BME280;41313;58.740;50.174;2022-11-15T05:34:22;99651.41;;;-1.59;45.31
55442;BME280;41313;58.740;50.174;2022-11-15T05:39:42;99640.53;;;-0.56;43.91
55442;BME280;41313;58.740;50.174;2022-11-15T05:45:05;99645.38;;;-0.38;43.23
55442;BME280;41313;58.740;50.174;2022-11-15T05:50:26;99639.78;;;-0.66;43.68
55442;BME280;41313;58.740;50.174;2022-11-15T05:55:47;99648.19;;;-0.02;42.41
55442;BME280;41313;58.740;50.174;2022-11-15T06:01:08;99655.00;;;0.02;42.34
55442;BME280;41313;58.740;50.174;2022-11-15T06:06:29;99646.66;;;0.34;42.04
55442;BME280;41313;58.740;50.174;2022-11-15T06:11:50;99655.00;;;0.02;42.46
55442;BME280;41313;58.740;50.174;2022-11-15T06:17:10;99664.41;;;-0.45;42.89
55442;BME280;41313;58.740;50.174;2022-11-15T06:22:30;99672.16;;;-0.43;42.57
55442;BME280;41313;58.740;50.174;2022-11-15T06:27:54;99677.59;;;-0.09;42.35
55442;BME280;41313;58.740;50.174;2022-11-15T06:33:14;99676.16;;;0.24;41.87
55442;BME280;41313;58.740;50.174;2022-11-15T06:38:35;99685.53;;;-0.20;42.38
55442;BME280;41313;58.740;50.174;2022-11-15T06:43:57;99687.44;;;-0.30;42.51
55442;BME280;41313;58.740;50.174;2022-11-15T06:49:17;99683.06;;;-0.28;41.82
55442;BME280;41313;58.740;50.174;2022-11-15T06:54:37;99679.75;;;-0.36;42.87
55442;BME280;41313;58.740;50.174;2022-11-15T06:59:57;99695.06;;;-0.24;42.40
55442;BME280;41313;58.740;50.174;2022-11-15T07:05:17;99690.66;;;0.33;41.91
55442;BME280;41313;58.740;50.174;2022-11-15T07:10:37;99692.50;;;0.25;42.13
55442;BME280;41313;58.740;50.174;2022-11-15T07:15:57;99696.50;;;-0.06;42.13
55442;BME280;41313;58.740;50.174;2022-11-15T07:21:17;99689.66;;;0.38;42.03
55442;BME280;41313;58.740;50.174;2022-11-15T07:26:38;99685.41;;;0.36;40.84
55442;BME280;41313;58.740;50.174;2022-11-15T07:31:59;99696.06;;;0.17;41.77
55442;BME280;41313;58.740;50.174;2022-11-15T07:37:19;99697.56;;;0.76;41.59
55442;BME280;41313;58.740;50.174;2022-11-15T07:42:40;99696.97;;;0.61;41.46
55442;BME280;41313;58.740;50.174;2022-11-15T07:48:12;99699.09;;;0.41;41.53
55442;BME280;41313;58.740;50.174;2022-11-15T07:53:32;99707.00;;;0.77;40.68
55442;BME280;41313;58.740;50.174;2022-11-15T07:58:53;99716.16;;;0.51;41.23
55442;BME280;41313;58.740;50.174;2022-11-15T08:04:13;99717.25;;;0.38;41.96
55442;BME280;41313;58.740;50.174;2022-11-15T08:09:33;99723.81;;;0.56;41.72
55442;BME280;41313;58.740;50.174;2022-11-15T08:14:54;99727.34;;;0.52;41.24
55442;BME280;41313;58.740;50.174;2022-11-15T08:20:15;99718.84;;;0.45;41.34
55442;BME280;41313;58.740;50.174;2022-11-15T08:25:36;99726.84;;;0.78;40.98
55442;BME280;41313;58.740;50.174;2022-11-15T08:30:57;99725.16;;;1.16;40.86
55442;BME280;41313;58.740;50.174;2022-11-15T08:36:17;99719.63;;;1.32;40.05
55442;BME280;41313;58.740;50.174;2022-11-15T08:41:41;99727.22;;;1.01;40.88
55442;BME280;41313;58.740;50.174;2022-11-15T08:47:48;99731.91;;;0.82;40.83
55442;BME280;41313;58.740;50.174;2022-11-15T08:53:30;99744.19;;;-0.27;43.49
55442;BME280;41313;58.740;50.174;2022-11-15T08:59:02;99744.53;;;-0.50;43.20
55442;BME280;41313;58.740;50.174;2022-11-15T09:04:25;99756.28;;;-0.90;45.03
55442;BME280;41313;58.740;50.174;2022-11-15T09:09:45;99758.16;;;-1.03;44.95
55442;BME280;41313;58.740;50.174;2022-11-15T09:15:06;99775.91;;;-1.54;45.61
55442;BME280;41313;58.740;50.174;2022-11-15T09:20:25;99766.94;;;-1.20;45.61
55442;BME280;41313;58.740;50.174;2022-11-15T09:25:45;99773.19;;;-0.70;44.69
55442;BME280;41313;58.740;50.174;2022-11-15T09:31:05;99783.25;;;-1.19;45.79
55442;BME280;41313;58.740;50.174;2022-11-15T09:36:26;99774.31;;;-0.90;44.76
55442;BME280;41313;58.740;50.174;2022-11-15T09:42:30;99767.47;;;-0.92;44.60
55442;BME280;41313;58.740;50.174;2022-11-15T09:54:09;99782.13;;;-0.95;45.45
55442;BME280;41313;58.740;50.174;2022-11-15T10:04:23;99780.94;;;-0.70;44.74
55442;BME280;41313;58.740;50.174;2022-11-15T10:09:36;99789.44;;;-0.63;44.26
55442;BME280;41313;58.740;50.174;2022-11-15T10:14:40;99785.41;;;-0.84;44.40
55442;BME280;41313;58.740;50.174;2022-11-15T10:26:00;99791.19;;;-0.62;44.44
55442;BME280;41313;58.740;50.174;2022-11-15T10:31:03;99789.00;;;-0.29;43.98
55442;BME280;41313;58.740;50.174;2022-11-15T10:41:11;99787.06;;;-0.77;44.32
55442;BME280;41313;58.740;50.174;2022-11-15T10:46:21;99787.75;;;-0.62;44.59
55442;BME280;41313;58.740;50.174;2022-11-15T10:51:27;99796.03;;;-0.42;44.38
55442;BME280;41313;58.740;50.174;2022-11-15T10:56:29;99794.38;;;-0.46;43.77
55442;BME280;41313;58.740;50.174;2022-11-15T11:01:45;99801.38;;;-0.53;44.20
55442;BME280;41313;58.740;50.174;2022-11-15T11:06:54;99805.06;;;-0.72;44.53
55442;BME280;41313;58.740;50.174;2022-11-15T11:11:56;99795.75;;;-0.84;44.34
55442;BME280;41313;58.740;50.174;2022-11-15T11:17:01;99802.97;;;-0.44;44.27
55442;BME280;41313;58.740;50.174;2022-11-15T11:22:33;99790.91;;;-0.43;43.66
55442;BME280;41313;58.740;50.174;2022-11-15T11:33:04;99793.31;;;-0.30;43.27
55442;BME280;41313;58.740;50.174;2022-11-15T11:48:43;99791.06;;;-0.54;43.77
55442;BME280;41313;58.740;50.174;2022-11-15T11:53:54;99801.50;;;-0.62;44.42
55442;BME280;41313;58.740;50.174;2022-11-15T11:59:50;99800.22;;;-0.32;43.73
55442;BME280;41313;58.740;50.174;2022-11-15T12:11:29;99811.66;;;0.59;41.86
55442;BME280;41313;58.740;50.174;2022-11-15T12:16:34;99811.88;;;0.47;42.06
55442;BME280;41313;58.740;50.174;2022-11-15T12:21:46;99823.03;;;-0.03;42.50
55442;BME280;41313;58.740;50.174;2022-11-15T12:26:54;99821.38;;;-0.07;42.61
55442;BME280;41313;58.740;50.174;2022-11-15T12:31:57;99837.22;;;-0.31;42.84
55442;BME280;41313;58.740;50.174;2022-11-15T12:37:01;99838.97;;;0.26;42.07
55442;BME280;41313;58.740;50.174;2022-11-15T12:47:23;99852.47;;;-0.13;42.79
55442;BME280;41313;58.740;50.174;2022-11-15T12:52:25;99855.59;;;-0.54;43.18
55442;BME280;41313;58.740;50.174;2022-11-15T12:57:35;99856.19;;;-0.34;42.74
55442;BME280;41313;58.740;50.174;2022-11-15T13:02:44;99845.25;;;-0.53;43.22
55442;BME280;41313;58.740;50.174;2022-11-15T13:12:50;99853.16;;;-0.65;43.41
55442;BME280;41313;58.740;50.174;2022-11-15T13:17:54;99852.00;;;-0.41;42.99
55442;BME280;41313;58.740;50.174;2022-11-15T13:23:02;99856.19;;;-0.32;43.15
55442;BME280;41313;58.740;50.174;2022-11-15T13:38:30;99860.38;;;-0.96;43.47
55442;BME280;41313;58.740;50.174;2022-11-15T13:43:36;99858.44;;;-0.76;43.26
55442;BME280;41313;58.740;50.174;2022-11-15T13:48:41;99864.03;;;-1.17;43.65
55442;BME280;41313;58.740;50.174;2022-11-15T13:53:48;99859.88;;;-1.29;43.90
55442;BME280;41313;58.740;50.174;2022-11-15T13:58:53;99866.72;;;-1.25;43.66
55442;BME280;41313;58.740;50.174;2022-11-15T14:03:58;99864.44;;;-1.57;44.26
55442;BME280;41313;58.740;50.174;2022-11-15T14:09:24;99865.47;;;-1.81;44.10
55442;BME280;41313;58.740;50.174;2022-11-15T14:14:30;99853.78;;;-1.22;43.19
55442;BME280;41313;58.740;50.174;2022-11-15T14:19:33;99869.91;;;-1.01;43.01
55442;BME280;41313;58.740;50.174;2022-11-15T14:24:37;99871.63;;;-1.00;42.96
55442;BME280;41313;58.740;50.174;2022-11-15T14:29:39;99868.38;;;-1.21;43.03
55442;BME280;41313;58.740;50.174;2022-11-15T14:34:42;99866.94;;;-1.52;43.39
55442;BME280;41313;58.740;50.174;2022-11-15T14:39:45;99868.75;;;-1.61;43.79
55442;BME280;41313;58.740;50.174;2022-11-15T14:46:10;99877.69;;;-1.06;42.45
55442;BME280;41313;58.740;50.174;2022-11-15T14:57:31;99880.75;;;-1.59;43.59
55442;BME280;41313;58.740;50.174;2022-11-15T15:02:33;99876.28;;;-1.41;43.31
55442;BME280;41313;58.740;50.174;2022-11-15T15:07:35;99879.88;;;-1.58;43.09
55442;BME280;41313;58.740;50.174;2022-11-15T15:12:36;99877.41;;;-1.71;43.08
55442;BME280;41313;58.740;50.174;2022-11-15T15:17:38;99879.19;;;-1.82;43.98
55442;BME280;41313;58.740;50.174;2022-11-15T15:22:39;99878.28;;;-1.73;43.72
55442;BME280;41313;58.740;50.174;2022-11-15T15:27:41;99878.22;;;-1.67;43.66
55442;BME280;41313;58.740;50.174;2022-11-15T15:32:42;99878.47;;;-1.98;43.94
55442;BME280;41313;58.740;50.174;2022-11-15T15:37:46;99879.22;;;-1.80;43.81
55442;BME280;41313;58.740;50.174;2022-11-15T15:42:48;99888.00;;;-2.14;44.38
55442;BME280;41313;58.740;50.174;2022-11-15T15:47:50;99872.25;;;-1.69;44.09
55442;BME280;41313;58.740;50.174;2022-11-15T15:52:55;99879.03;;;-1.57;43.91
55442;BME280;41313;58.740;50.174;2022-11-15T15:57:57;99881.59;;;-1.56;43.56
55442;BME280;41313;58.740;50.174;2022-11-15T16:02:59;99873.09;;;-1.66;43.76
55442;BME280;41313;58.740;50.174;2022-11-15T16:08:01;99870.28;;;-1.41;42.94
55442;BME280;41313;58.740;50.174;2022-11-15T16:13:03;99870.28;;;-1.41;42.80
55442;BME280;41313;58.740;50.174;2022-11-15T16:18:05;99873.84;;;-1.51;43.39
55442;BME280;41313;58.740;50.174;2022-11-15T16:23:11;99866.88;;;-1.42;43.55
55442;BME280;41313;58.740;50.174;2022-11-15T16:28:24;99868.53;;;-1.36;42.91
55442;BME280;41313;58.740;50.174;2022-11-15T16:33:26;99871.06;;;-1.30;43.41
55442;BME280;41313;58.740;50.174;2022-11-15T16:38:28;99864.41;;;-1.54;43.44
55442;BME280;41313;58.740;50.174;2022-11-15T16:43:29;99879.09;;;-1.67;43.91
55442;BME280;41313;58.740;50.174;2022-11-15T16:48:31;99865.00;;;-1.26;42.92
55442;BME280;41313;58.740;50.174;2022-11-15T16:53:34;99884.13;;;-1.51;43.77
55442;BME280;41313;58.740;50.174;2022-11-15T16:58:36;99888.06;;;-1.12;42.75
55442;BME280;41313;58.740;50.174;2022-11-15T17:03:38;99890.16;;;-1.52;43.84
55442;BME280;41313;58.740;50.174;2022-11-15T17:08:40;99890.88;;;-1.38;43.58
55442;BME280;41313;58.740;50.174;2022-11-15T17:13:42;99883.00;;;-1.21;43.62
55442;BME280;41313;58.740;50.174;2022-11-15T17:18:44;99892.63;;;-1.40;44.07
55442;BME280;41313;58.740;50.174;2022-11-15T17:23:46;99880.53;;;-1.32;43.47
55442;BME280;41313;58.740;50.174;2022-11-15T17:28:48;99883.31;;;-1.56;44.27
55442;BME280;41313;58.740;50.174;2022-11-15T17:33:54;99882.38;;;-1.48;43.93
55442;BME280;41313;58.740;50.174;2022-11-15T17:38:56;99885.53;;;-1.17;43.14
55442;BME280;41313;58.740;50.174;2022-11-15T17:43:58;99891.06;;;-1.61;44.33
55442;BME280;41313;58.740;50.174;2022-11-15T17:49:00;99890.75;;;-1.23;43.42
55442;BME280;41313;58.740;50.174;2022-11-15T17:54:02;99897.56;;;-1.16;43.18
55442;BME280;41313;58.740;50.174;2022-11-15T17:59:03;99897.63;;;-1.22;43.43
55442;BME280;41313;58.740;50.174;2022-11-15T18:04:07;99896.09;;;-1.43;43.90
55442;BME280;41313;58.740;50.174;2022-11-15T18:09:10;99895.84;;;-1.17;43.50
55442;BME280;41313;58.740;50.174;2022-11-15T18:14:14;99898.47;;;-1.21;43.86
55442;BME280;41313;58.740;50.174;2022-11-15T18:19:15;99892.50;;;-1.26;43.40
55442;BME280;41313;58.740;50.174;2022-11-15T18:24:17;99887.34;;;-1.25;43.36
55442;BME280;41313;58.740;50.174;2022-11-15T18:29:19;99890.84;;;-1.35;44.02
55442;BME280;41313;58.740;50.174;2022-11-15T18:34:23;99892.59;;;-1.37;44.21
55442;BME280;41313;58.740;50.174;2022-11-15T18:39:25;99895.41;;;-1.63;44.31
55442;BME280;41313;58.740;50.174;2022-11-15T18:44:28;99901.34;;;-1.53;44.26
55442;BME280;41313;58.740;50.174;2022-11-15T18:49:30;99898.72;;;-1.52;44.15
55442;BME280;41313;58.740;50.174;2022-11-15T18:54:32;99895.38;;;-1.60;44.26
55442;BME280;41313;58.740;50.174;2022-11-15T18:59:33;99898.72;;;-1.50;43.68
55442;BME280;41313;58.740;50.174;2022-11-15T19:04:35;99903.84;;;-1.47;44.28
55442;BME280;41313;58.740;50.174;2022-11-15T19:09:40;99896.25;;;-1.63;44.37
55442;BME280;41313;58.740;50.174;2022-11-15T19:14:48;99897.22;;;-1.77;44.49
55442;BME280;41313;58.740;50.174;2022-11-15T19:19:54;99892.00;;;-1.68;44.15
55442;BME280;41313;58.740;50.174;2022-11-15T19:24:59;99894.72;;;-1.90;44.83
55442;BME280;41313;58.740;50.174;2022-11-15T19:30:01;99893.84;;;-1.87;44.42
55442;BME280;41313;58.740;50.174;2022-11-15T19:35:04;99899.97;;;-2.02;44.97
55442;BME280;41313;58.740;50.174;2022-11-15T19:40:08;99903.44;;;-2.11;45.00
55442;BME280;41313;58.740;50.174;2022-11-15T19:45:11;99913.75;;;-2.14;45.15
55442;BME280;41313;58.740;50.174;2022-11-15T19:50:16;99907.69;;;-2.03;45.11
55442;BME280;41313;58.740;50.174;2022-11-15T19:55:19;99912.25;;;-2.64;46.48
55442;BME280;41313;58.740;50.174;2022-11-15T20:00:22;99912.09;;;-2.22;45.32
55442;BME280;41313;58.740;50.174;2022-11-15T20:05:26;99913.84;;;-2.29;44.88
55442;BME280;41313;58.740;50.174;2022-11-15T20:10:28;99919.00;;;-2.35;45.21
55442;BME280;41313;58.740;50.174;2022-11-15T20:15:31;99919.03;;;-2.44;45.72
55442;BME280;41313;58.740;50.174;2022-11-15T20:20:33;99921.69;;;-2.61;45.90
55442;BME280;41313;58.740;50.174;2022-11-15T20:25:36;99932.75;;;-2.39;45.73
55442;BME280;41313;58.740;50.174;2022-11-15T20:30:42;99936.28;;;-2.62;45.38
55442;BME280;41313;58.740;50.174;2022-11-15T20:35:44;99931.16;;;-2.80;45.97
55442;BME280;41313;58.740;50.174;2022-11-15T20:40:50;99934.53;;;-2.57;45.89
55442;BME280;41313;58.740;50.174;2022-11-15T20:45:52;99937.16;;;-2.75;46.67
55442;BME280;41313;58.740;50.174;2022-11-15T20:56:16;99934.63;;;-2.96;46.31
55442;BME280;41313;58.740;50.174;2022-11-15T21:01:19;99932.03;;;-2.81;46.02
55442;BME280;41313;58.740;50.174;2022-11-15T21:06:25;99936.28;;;-2.74;45.64
55442;BME280;41313;58.740;50.174;2022-11-15T21:11:27;99928.56;;;-2.69;45.91
55442;BME280;41313;58.740;50.174;2022-11-15T21:16:48;99923.38;;;-2.65;45.86
55442;BME280;41313;58.740;50.174;2022-11-15T21:21:50;99929.44;;;-2.81;45.59
55442;BME280;41313;58.740;50.174;2022-11-15T21:26:53;99926.03;;;-2.95;45.68
55442;BME280;41313;58.740;50.174;2022-11-15T21:31:55;99922.63;;;-2.98;45.63
55442;BME280;41313;58.740;50.174;2022-11-15T21:36:57;99912.25;;;-2.65;45.25
55442;BME280;41313;58.740;50.174;2022-11-15T21:41:59;99914.09;;;-3.12;45.78
55442;BME280;41313;58.740;50.174;2022-11-15T21:47:00;99913.91;;;-2.47;44.81
55442;BME280;41313;58.740;50.174;2022-11-15T21:52:02;99924.31;;;-2.81;45.21
55442;BME280;41313;58.740;50.174;2022-11-15T21:57:04;99914.00;;;-2.75;44.97
55442;BME280;41313;58.740;50.174;2022-11-15T22:02:08;99915.72;;;-2.80;45.03
55442;BME280;41313;58.740;50.174;2022-11-15T22:07:15;99922.63;;;-3.10;45.75
55442;BME280;41313;58.740;50.174;2022-11-15T22:12:17;99919.19;;;-2.96;45.32
55442;BME280;41313;58.740;50.174;2022-11-15T22:17:19;99919.19;;;-2.92;45.40
55442;BME280;41313;58.740;50.174;2022-11-15T22:22:20;99915.75;;;-2.91;45.04
55442;BME280;41313;58.740;50.174;2022-11-15T22:27:22;99912.31;;;-2.85;44.99
55442;BME280;41313;58.740;50.174;2022-11-15T22:32:24;99921.75;;;-2.92;44.64
55442;BME280;41313;58.740;50.174;2022-11-15T22:37:26;99920.88;;;-2.86;44.50
55442;BME280;41313;58.740;50.174;2022-11-15T22:42:27;99920.06;;;-2.88;44.55
55442;BME280;41313;58.740;50.174;2022-11-15T22:47:29;99919.19;;;-2.87;44.73
55442;BME280;41313;58.740;50.174;2022-11-15T22:52:31;99930.34;;;-3.02;44.29
55442;BME280;41313;58.740;50.174;2022-11-15T22:57:33;99920.94;;;-3.17;44.42
55442;BME280;41313;58.740;50.174;2022-11-15T23:02:38;99927.81;;;-3.24;44.91
55442;BME280;41313;58.740;50.174;2022-11-15T23:07:40;99931.22;;;-3.20;45.06
55442;BME280;41313;58.740;50.174;2022-11-15T23:12:42;99936.38;;;-3.41;44.55
55442;BME280;41313;58.740;50.174;2022-11-15T23:18:02;99939.81;;;-3.53;45.02
55442;BME280;41313;58.740;50.174;2022-11-15T23:23:04;99938.06;;;-3.86;45.32
55442;BME280;41313;58.740;50.174;2022-11-15T23:28:05;99943.19;;;-3.80;45.04
55442;BME280;41313;58.740;50.174;2022-11-15T23:33:13;99950.03;;;-3.79;45.15
55442;BME280;41313;58.740;50.174;2022-11-15T23:38:36;99951.78;;;-3.60;44.81
55442;BME280;41313;58.740;50.174;2022-11-15T23:43:38;99940.63;;;-3.77;45.01
55442;BME280;41313;58.740;50.174;2022-11-15T23:48:40;99951.75;;;-3.75;44.97
55442;BME280;41313;58.740;50.174;2022-11-15T23:53:42;99944.91;;;-3.76;44.63
55442;BME280;41313;58.740;50.174;2022-11-15T23:58:45;99950.06;;;-3.64;44.15
